createdAt,value
2019-06-08T00:01:10.466Z,28.97
2019-06-08T00:04:18.612Z,29.13
2019-06-08T00:07:26.353Z,29.87
2019-06-08T00:10:34.005Z,30.77
2019-06-08T00:13:41.915Z,31.50
2019-06-08T00:16:49.531Z,32.10
2019-06-08T00:19:57.018Z,33.30
2019-06-08T00:23:04.759Z,33.90
2019-06-08T00:26:13.892Z,36.93
2019-06-08T00:29:22.409Z,36.60
2019-06-08T00:32:29.968Z,37.30
2019-06-08T00:35:37.418Z,39.03
2019-06-08T00:38:45.119Z,38.57
2019-06-08T00:41:52.724Z,40.60
2019-06-08T00:45:00.322Z,40.00
2019-06-08T00:48:07.719Z,38.90
2019-06-08T00:51:15.204Z,38.00
2019-06-08T00:54:23.507Z,41.83
2019-06-08T00:57:31.008Z,37.70
2019-06-08T01:00:38.917Z,40.03
2019-06-08T01:03:46.378Z,41.27
2019-06-08T01:06:55.070Z,42.70
2019-06-08T01:10:02.673Z,42.87
2019-06-08T01:13:10.311Z,42.70
2019-06-08T01:16:18.793Z,40.80
2019-06-08T01:19:27.436Z,44.37
2019-06-08T01:22:34.946Z,43.00
2019-06-08T01:25:42.766Z,45.73
2019-06-08T01:28:50.174Z,41.50
2019-06-08T01:31:57.740Z,43.10
2019-06-08T01:35:05.851Z,45.60
2019-06-08T01:38:13.396Z,44.43
2019-06-08T01:41:21.346Z,39.90
2019-06-08T01:44:30.090Z,40.93
2019-06-08T01:47:37.780Z,40.13
2019-06-08T01:50:45.708Z,41.17
2019-06-08T01:53:53.182Z,43.70
2019-06-08T01:57:00.850Z,42.13
2019-06-08T02:00:29.332Z,40.17
2019-06-08T02:03:18.163Z,40.57
2019-06-08T02:06:26.249Z,45.73
2019-06-08T02:09:35.696Z,45.53
2019-06-08T02:12:43.316Z,40.40
2019-06-08T02:15:51.180Z,40.77
2019-06-08T02:18:58.709Z,41.70
2019-06-08T02:22:06.383Z,42.23
2019-06-08T02:25:16.547Z,42.63
2019-06-08T02:28:24.020Z,41.87
2019-06-08T02:31:32.772Z,40.37
2019-06-08T02:34:41.073Z,41.03
2019-06-08T02:37:48.699Z,42.43
2019-06-08T02:40:56.350Z,42.00
2019-06-08T02:44:04.075Z,42.17
2019-06-08T02:47:15.455Z,42.00
2019-06-08T02:50:48.005Z,40.97
2019-06-08T02:53:55.633Z,42.03
2019-06-08T02:57:05.289Z,41.13
2019-06-08T03:00:13.414Z,41.10
2019-06-08T03:03:21.033Z,39.60
2019-06-08T03:06:32.273Z,41.90
2019-06-08T03:09:41.220Z,41.70
2019-06-08T03:12:51.603Z,40.10
2019-06-08T03:15:59.302Z,40.40
2019-06-08T03:19:20.639Z,39.87
2019-06-08T03:22:16.075Z,38.80
2019-06-08T03:25:23.585Z,38.20
2019-06-08T03:28:32.504Z,39.03
2019-06-08T03:31:49.686Z,37.10
2019-06-08T03:34:55.694Z,40.03
2019-06-08T03:37:58.525Z,43.10
2019-06-08T03:41:05.995Z,43.10
2019-06-08T03:44:13.458Z,43.13
2019-06-08T03:47:21.003Z,41.97
2019-06-08T03:50:28.488Z,42.83
2019-06-08T03:53:37.733Z,40.37
2019-06-08T03:56:46.172Z,38.60
2019-06-08T03:59:53.785Z,37.47
2019-06-08T04:03:01.477Z,35.70
2019-06-08T04:06:08.943Z,34.20
2019-06-08T04:09:16.399Z,34.87
2019-06-08T04:12:23.788Z,32.73
2019-06-08T04:15:31.449Z,31.13
2019-06-08T04:18:40.286Z,30.80
2019-06-08T04:21:48.038Z,29.90
2019-06-08T04:24:55.520Z,29.47
2019-06-08T04:28:02.919Z,29.17
2019-06-08T04:31:10.389Z,28.87
2019-06-08T04:34:17.839Z,29.87
2019-06-08T04:37:25.313Z,29.27
2019-06-08T04:40:32.772Z,25.87
2019-06-08T04:43:42.780Z,27.43
2019-06-08T04:46:50.846Z,26.20
2019-06-08T04:49:58.363Z,24.67
2019-06-08T04:53:05.835Z,23.90
2019-06-08T04:56:13.297Z,23.80
2019-06-08T04:59:20.813Z,22.87
2019-06-08T05:02:28.333Z,22.73
2019-06-08T05:05:35.819Z,22.47
2019-06-08T05:08:43.251Z,22.53
2019-06-08T05:11:50.659Z,20.20
2019-06-08T05:14:58.121Z,24.43
2019-06-08T05:18:05.795Z,24.97
2019-06-08T05:21:13.223Z,22.87
2019-06-08T05:24:21.331Z,24.63
2019-06-08T05:27:28.803Z,22.70
2019-06-08T05:30:36.302Z,21.57
2019-06-08T05:33:43.771Z,23.37
2019-06-08T05:36:51.254Z,22.30
2019-06-08T05:39:58.712Z,20.40
2019-06-08T05:43:06.280Z,23.73
2019-06-08T05:46:13.757Z,20.00
2019-06-08T05:49:21.334Z,19.60
2019-06-08T05:52:28.825Z,20.07
2019-06-08T05:55:36.247Z,20.27
2019-06-08T05:58:43.940Z,19.07
2019-06-08T06:01:51.569Z,23.87
2019-06-08T06:04:59.101Z,17.80
2019-06-08T06:08:17.963Z,17.00
2019-06-08T06:11:15.791Z,21.10
2019-06-08T06:14:24.522Z,17.80
2019-06-08T06:17:31.982Z,14.80
2019-06-08T06:20:41.008Z,14.13
2019-06-08T06:23:49.308Z,14.07
2019-06-08T06:26:57.147Z,12.80
2019-06-08T06:30:04.900Z,13.97
2019-06-08T06:33:12.337Z,9.83
2019-06-08T06:36:21.031Z,12.20
2019-06-08T06:39:28.540Z,10.60
2019-06-08T06:42:36.103Z,10.30
2019-06-08T06:45:43.981Z,9.27
2019-06-08T06:48:52.509Z,9.50
2019-06-08T06:52:00.324Z,9.40
2019-06-08T06:55:08.917Z,10.30
2019-06-08T06:58:16.413Z,10.50
2019-06-08T07:01:24.174Z,10.10
2019-06-08T07:04:31.760Z,10.57
2019-06-08T07:07:39.296Z,11.23
2019-06-08T07:10:49.382Z,10.10
2019-06-08T07:13:57.057Z,10.17
2019-06-08T07:17:04.602Z,9.83
2019-06-08T07:20:12.281Z,10.20
2019-06-08T07:23:19.946Z,9.67
2019-06-08T07:26:27.514Z,9.93
2019-06-08T07:29:35.108Z,10.07
2019-06-08T07:32:42.702Z,9.80
2019-06-08T07:35:51.567Z,11.20
2019-06-08T07:38:59.649Z,9.80
2019-06-08T07:42:07.290Z,10.23
2019-06-08T07:45:14.936Z,10.43
2019-06-08T07:48:24.128Z,10.00
2019-06-08T07:51:31.833Z,9.90
2019-06-08T07:54:39.290Z,9.50
2019-06-08T07:57:48.501Z,8.10
2019-06-08T08:01:03.653Z,9.27
2019-06-08T08:04:04.896Z,9.47
2019-06-08T08:07:12.562Z,10.80
2019-06-08T08:10:20.145Z,10.30
2019-06-08T08:13:27.611Z,11.23
2019-06-08T08:16:35.088Z,10.43
2019-06-08T08:19:42.646Z,9.70
2019-06-08T08:22:54.402Z,9.37
2019-06-08T08:26:01.751Z,9.87
2019-06-08T08:29:08.566Z,10.03
2019-06-08T08:32:18.606Z,9.70
2019-06-08T08:35:25.217Z,10.47
2019-06-08T08:38:32.637Z,10.80
2019-06-08T08:41:40.083Z,10.47
2019-06-08T08:44:48.633Z,9.27
2019-06-08T08:48:14.432Z,8.73
2019-06-08T08:51:08.605Z,9.70
2019-06-08T08:54:18.138Z,8.00
2019-06-08T08:57:25.710Z,9.40
2019-06-08T09:00:33.379Z,8.60
2019-06-08T09:03:40.893Z,8.90
2019-06-08T09:06:48.434Z,10.10
2019-06-08T09:09:59.422Z,9.63
2019-06-08T09:13:05.166Z,8.47
2019-06-08T09:16:12.623Z,8.07
2019-06-08T09:19:21.043Z,7.60
2019-06-08T09:22:31.150Z,8.33
2019-06-08T09:25:40.393Z,8.07
2019-06-08T09:28:46.789Z,8.27
2019-06-08T09:31:54.287Z,7.77
2019-06-08T09:35:04.652Z,8.27
2019-06-08T09:38:11.099Z,8.93
2019-06-08T09:41:18.798Z,8.90
2019-06-08T09:44:28.112Z,9.20
2019-06-08T09:47:37.948Z,8.90
2019-06-08T09:50:44.471Z,9.20
2019-06-08T09:53:54.248Z,9.17
2019-06-08T09:57:03.962Z,9.97
2019-06-08T10:00:18.008Z,9.60
2019-06-08T10:03:20.835Z,13.00
2019-06-08T10:06:28.457Z,17.37
2019-06-08T10:09:37.989Z,19.50
2019-06-08T10:12:44.921Z,20.50
2019-06-08T10:15:52.387Z,21.40
2019-06-08T10:19:03.578Z,24.50
2019-06-08T10:22:09.029Z,24.07
2019-06-08T10:25:16.697Z,21.47
2019-06-08T10:28:24.162Z,21.67
2019-06-08T10:31:38.890Z,21.73
2019-06-08T10:34:40.855Z,21.30
2019-06-08T10:37:51.210Z,23.00
2019-06-08T10:41:10.411Z,21.30
2019-06-08T10:44:14.431Z,25.30
2019-06-08T10:47:22.141Z,20.93
2019-06-08T10:50:29.686Z,21.10
2019-06-08T10:53:46.399Z,21.13
2019-06-08T10:56:48.421Z,21.30
2019-06-08T10:59:57.573Z,20.67
2019-06-08T11:03:06.697Z,20.00
2019-06-08T11:06:13.731Z,21.70
2019-06-08T11:09:21.554Z,20.57
2019-06-08T11:12:29.219Z,20.80
2019-06-08T11:15:37.823Z,20.43
2019-06-08T11:18:45.623Z,21.23
2019-06-08T11:21:53.071Z,17.83
2019-06-08T11:25:01.965Z,18.70
2019-06-08T11:28:14.905Z,17.67
2019-06-08T11:31:19.828Z,15.63
2019-06-08T11:34:28.809Z,15.50
2019-06-08T11:37:38.763Z,15.20
2019-06-08T11:40:47.819Z,16.00
2019-06-08T11:43:59.554Z,16.23
2019-06-08T11:47:04.651Z,15.53
2019-06-08T11:50:13.476Z,16.63
2019-06-08T11:53:21.055Z,17.03
2019-06-08T11:56:29.117Z,15.47
2019-06-08T11:59:37.491Z,15.03
2019-06-08T12:02:45.157Z,14.63
2019-06-08T12:05:52.667Z,14.43
2019-06-08T12:09:00.305Z,14.30
2019-06-08T12:12:17.153Z,12.27
2019-06-08T12:15:21.201Z,13.47
2019-06-08T12:18:28.708Z,12.73
2019-06-08T12:21:36.246Z,13.10
2019-06-08T12:24:43.698Z,13.00
2019-06-08T12:27:52.776Z,12.60
2019-06-08T12:31:01.149Z,11.83
2019-06-08T12:34:09.237Z,11.03
2019-06-08T12:37:21.790Z,12.03
2019-06-08T12:40:28.097Z,10.67
2019-06-08T12:43:34.936Z,10.30
2019-06-08T12:46:42.476Z,9.57
2019-06-08T12:49:49.924Z,9.40
2019-06-08T12:52:58.393Z,8.70
2019-06-08T12:56:05.992Z,9.37
2019-06-08T12:59:17.017Z,9.73
2019-06-08T13:02:24.252Z,8.50
2019-06-08T13:05:33.029Z,7.87
2019-06-08T13:08:40.488Z,6.73
2019-06-08T13:11:50.516Z,6.70
2019-06-08T13:14:58.176Z,6.37
2019-06-08T13:18:05.859Z,6.60
2019-06-08T13:21:25.411Z,5.30
2019-06-08T13:24:22.583Z,5.77
2019-06-08T13:27:30.122Z,4.97
2019-06-08T13:30:38.984Z,4.30
2019-06-08T13:33:48.571Z,4.30
2019-06-08T13:36:55.805Z,5.40
2019-06-08T13:40:03.360Z,4.73
2019-06-08T13:43:11.227Z,3.30
2019-06-08T13:46:20.763Z,2.80
2019-06-08T13:49:30.825Z,2.80
2019-06-08T13:52:38.290Z,3.20
2019-06-08T13:55:53.201Z,3.80
2019-06-08T13:58:54.995Z,3.00
2019-06-08T14:02:02.821Z,3.77
2019-06-08T14:05:10.529Z,2.97
2019-06-08T14:08:20.690Z,2.53
2019-06-08T14:11:28.072Z,3.20
2019-06-08T14:14:39.680Z,3.20
2019-06-08T14:17:47.383Z,2.63
2019-06-08T14:20:54.778Z,2.30
2019-06-08T14:24:03.619Z,3.50
2019-06-08T14:27:11.050Z,3.37
2019-06-08T14:30:20.794Z,2.70
2019-06-08T14:33:33.054Z,2.63
2019-06-08T14:36:40.580Z,3.27
2019-06-08T14:39:45.911Z,2.80
2019-06-08T14:42:53.382Z,2.63
2019-06-08T14:46:00.839Z,2.57
2019-06-08T14:49:09.884Z,2.53
2019-06-08T14:52:19.343Z,2.43
2019-06-08T14:55:31.646Z,3.50
2019-06-08T14:58:35.584Z,2.60
2019-06-08T15:01:43.045Z,3.00
2019-06-08T15:04:50.615Z,2.90
2019-06-08T15:08:00.744Z,2.67
2019-06-08T15:11:08.119Z,3.00
2019-06-08T15:14:15.838Z,3.20
2019-06-08T15:17:23.768Z,3.87
2019-06-08T15:20:31.329Z,3.87
2019-06-08T15:23:38.762Z,3.00
2019-06-08T15:26:48.666Z,2.53
2019-06-08T15:29:55.823Z,2.77
2019-06-08T15:33:03.214Z,2.20
2019-06-08T15:36:10.650Z,3.70
2019-06-08T15:39:18.170Z,2.63
2019-06-08T15:42:28.690Z,2.37
2019-06-08T15:45:34.871Z,2.70
2019-06-08T15:48:42.293Z,2.87
2019-06-08T15:51:49.697Z,2.73
2019-06-08T15:54:59.017Z,2.77
2019-06-08T15:58:08.705Z,3.30
2019-06-08T16:01:15.488Z,2.53
2019-06-08T16:04:23.422Z,2.40
2019-06-08T16:07:32.754Z,2.80
2019-06-08T16:10:40.993Z,3.00
2019-06-08T16:13:48.440Z,2.70
2019-06-08T16:16:56.079Z,3.17
2019-06-08T16:20:03.515Z,2.80
2019-06-08T16:23:11.107Z,2.43
2019-06-08T16:26:19.002Z,2.50
2019-06-08T16:29:26.909Z,2.60
2019-06-08T16:32:35.395Z,2.90
2019-06-08T16:35:42.981Z,2.90
2019-06-08T16:38:52.834Z,2.60
2019-06-08T16:41:59.869Z,2.50
2019-06-08T16:45:07.861Z,2.80
2019-06-08T16:48:15.314Z,3.23
2019-06-08T16:51:22.974Z,2.40
2019-06-08T16:54:30.647Z,1.97
2019-06-08T16:57:40.784Z,1.60
2019-06-08T17:00:47.431Z,2.00
2019-06-08T17:03:54.973Z,2.40
2019-06-08T17:07:03.277Z,2.60
2019-06-08T17:10:10.937Z,3.60
2019-06-08T17:13:18.381Z,3.10
2019-06-08T17:16:26.011Z,3.10
2019-06-08T17:19:34.097Z,2.13
2019-06-08T17:22:41.708Z,2.50
2019-06-08T17:25:49.161Z,1.87
2019-06-08T17:28:56.645Z,1.50
2019-06-08T17:32:04.113Z,1.67
2019-06-08T17:35:12.241Z,1.33
2019-06-08T17:38:19.815Z,1.60
2019-06-08T17:41:27.393Z,1.73
2019-06-08T17:44:36.389Z,1.53
2019-06-08T17:47:44.364Z,1.57
2019-06-08T17:50:51.918Z,1.30
2019-06-08T17:53:59.440Z,2.03
2019-06-08T17:57:06.889Z,1.70
2019-06-08T18:00:14.906Z,2.00
2019-06-08T18:03:22.449Z,1.93
2019-06-08T18:06:29.903Z,1.67
2019-06-08T18:09:39.258Z,2.47
2019-06-08T18:12:49.032Z,2.00
2019-06-08T18:15:57.586Z,2.27
2019-06-08T18:19:04.985Z,2.20
2019-06-08T18:22:15.316Z,2.07
2019-06-08T18:25:21.527Z,3.23
2019-06-08T18:28:28.973Z,4.20
2019-06-08T18:31:39.654Z,3.50
2019-06-08T18:34:47.926Z,3.03
2019-06-08T18:37:54.715Z,2.10
2019-06-08T18:41:02.160Z,2.70
2019-06-08T18:44:09.610Z,2.20
2019-06-08T18:47:20.089Z,2.03
2019-06-08T18:50:28.469Z,3.10
2019-06-08T18:53:54.366Z,3.67
2019-06-08T18:56:48.416Z,4.60
2019-06-08T18:59:54.398Z,5.57
2019-06-08T19:03:01.899Z,6.37
2019-06-08T19:06:10.429Z,6.20
2019-06-08T19:09:18.220Z,7.27
2019-06-08T19:12:27.665Z,6.40
2019-06-08T19:15:40.685Z,6.10
2019-06-08T19:18:48.944Z,4.87
2019-06-08T19:21:54.501Z,5.73
2019-06-08T19:25:02.055Z,5.10
2019-06-08T19:28:09.739Z,6.83
2019-06-08T19:31:17.646Z,6.50
2019-06-08T19:34:27.926Z,7.50
2019-06-08T19:37:34.323Z,7.83
2019-06-08T19:40:42.664Z,8.20
2019-06-08T19:43:54.551Z,7.80
2019-06-08T19:46:59.612Z,9.90
2019-06-08T19:50:07.958Z,10.73
2019-06-08T19:53:18.376Z,10.10
2019-06-08T19:56:27.972Z,10.93
2019-06-08T19:59:35.334Z,8.30
2019-06-08T20:02:44.638Z,8.10
2019-06-08T20:05:53.608Z,6.50
2019-06-08T20:09:01.853Z,5.77
2019-06-08T20:12:10.945Z,5.97
2019-06-08T20:15:18.533Z,5.80
2019-06-08T20:18:27.981Z,6.50
2019-06-08T20:21:35.493Z,6.83
2019-06-08T20:24:44.057Z,5.83
2019-06-08T20:27:51.755Z,7.23
2019-06-08T20:30:59.939Z,9.40
2019-06-08T20:34:07.390Z,10.80
2019-06-08T20:37:14.835Z,10.60
2019-06-08T20:40:22.346Z,8.37
2019-06-08T20:43:29.852Z,8.27
2019-06-08T20:46:37.754Z,8.23
2019-06-08T20:49:48.630Z,7.60
2019-06-08T20:52:54.566Z,8.67
2019-06-08T20:56:02.047Z,9.20
2019-06-08T20:59:09.534Z,8.40
2019-06-08T21:02:17.841Z,8.50
2019-06-08T21:05:27.603Z,8.53
2019-06-08T21:08:34.377Z,7.83
2019-06-08T21:11:41.925Z,8.13
2019-06-08T21:14:52.284Z,7.97
2019-06-08T21:17:59.995Z,6.77
2019-06-08T21:21:08.119Z,8.10
2019-06-08T21:24:17.317Z,8.23
2019-06-08T21:27:24.928Z,7.67
2019-06-08T21:30:32.456Z,6.93
2019-06-08T21:33:39.915Z,7.53
2019-06-08T21:36:49.811Z,6.10
2019-06-08T21:40:03.171Z,6.67
2019-06-08T21:43:07.926Z,8.73
2019-06-08T21:46:14.636Z,6.40
2019-06-08T21:49:22.159Z,5.80
2019-06-08T21:52:29.589Z,5.30
2019-06-08T21:55:38.290Z,6.27
2019-06-08T21:58:47.283Z,6.50
2019-06-08T22:01:59.005Z,6.00
2019-06-08T22:05:04.872Z,6.60
2019-06-08T22:08:12.618Z,7.40
2019-06-08T22:11:20.135Z,7.60
2019-06-08T22:14:27.575Z,7.23
2019-06-08T22:17:38.087Z,6.90
2019-06-08T22:20:47.645Z,8.53
2019-06-08T22:23:55.858Z,7.67
2019-06-08T22:27:03.672Z,7.77
2019-06-08T22:30:22.920Z,8.70
2019-06-08T22:33:22.260Z,7.67
2019-06-08T22:36:29.949Z,8.93
2019-06-08T22:39:38.057Z,9.80
2019-06-08T22:42:48.104Z,8.30
2019-06-08T22:45:57.561Z,7.80
2019-06-08T22:49:04.621Z,12.17
2019-06-08T22:52:12.307Z,10.77
2019-06-08T22:55:19.853Z,11.53
2019-06-08T22:58:27.688Z,11.10
2019-06-08T23:01:35.197Z,11.63
2019-06-08T23:04:42.763Z,9.63
2019-06-08T23:07:52.358Z,12.40
2019-06-08T23:11:02.005Z,11.60
2019-06-08T23:14:12.883Z,11.47
2019-06-08T23:17:18.187Z,10.00
2019-06-08T23:20:27.578Z,11.00
2019-06-08T23:23:34.769Z,11.10
2019-06-08T23:26:42.233Z,11.33
2019-06-08T23:29:49.829Z,11.83
2019-06-08T23:33:01.459Z,10.80
2019-06-08T23:39:22.249Z,11.67
2019-06-08T23:42:29.682Z,12.83
2019-06-08T23:45:38.009Z,12.03
2019-06-08T23:48:48.152Z,11.90
2019-06-08T23:51:54.853Z,12.47
2019-06-08T23:55:04.263Z,13.33
2019-06-08T23:58:13.525Z,13.00
